createdAt,value
2022-10-29T00:00:53.761Z,14.28
2022-10-29T00:01:53.856Z,14.17
2022-10-29T00:02:53.772Z,14.12
2022-10-29T00:03:53.751Z,14.18
2022-10-29T00:04:53.715Z,14.15
2022-10-29T00:05:53.729Z,14.14
2022-10-29T00:06:53.704Z,14.14
2022-10-29T00:07:54.091Z,14.14
2022-10-29T00:08:53.671Z,14.20
2022-10-29T00:09:53.661Z,14.18
2022-10-29T00:10:53.648Z,14.18
2022-10-29T00:11:53.686Z,14.20
2022-10-29T00:12:53.625Z,14.17
2022-10-29T00:13:53.616Z,14.22
2022-10-29T00:14:53.622Z,14.20
2022-10-29T00:15:53.593Z,14.21
2022-10-29T00:16:53.601Z,14.18
2022-10-29T00:17:53.924Z,14.18
2022-10-29T00:18:53.557Z,14.14
2022-10-29T00:19:53.684Z,14.15
2022-10-29T00:20:53.556Z,14.14
2022-10-29T00:21:53.545Z,14.12
2022-10-29T00:22:53.773Z,14.07
2022-10-29T00:23:53.503Z,14.10
2022-10-29T00:24:53.494Z,14.15
2022-10-29T00:25:53.481Z,14.06
2022-10-29T00:26:53.497Z,14.15
2022-10-29T00:27:53.459Z,14.00
2022-10-29T00:28:53.453Z,14.09
2022-10-29T00:29:53.437Z,14.18
2022-10-29T00:30:53.445Z,14.14
2022-10-29T00:31:53.498Z,14.24
2022-10-29T00:32:53.584Z,14.12
2022-10-29T00:33:53.394Z,14.18
2022-10-29T00:34:53.381Z,14.18
2022-10-29T00:35:53.370Z,14.14
2022-10-29T00:36:53.378Z,14.09
2022-10-29T00:37:53.715Z,14.25
2022-10-29T00:38:53.353Z,14.09
2022-10-29T00:39:53.328Z,14.21
2022-10-29T00:40:53.332Z,14.20
2022-10-29T00:41:53.303Z,14.17
2022-10-29T00:42:53.310Z,14.24
2022-10-29T00:43:53.278Z,14.17
2022-10-29T00:44:53.288Z,14.18
2022-10-29T00:45:53.282Z,14.10
2022-10-29T00:46:53.261Z,14.12
2022-10-29T00:47:53.643Z,14.20
2022-10-29T00:48:53.221Z,14.15
2022-10-29T00:49:53.212Z,14.20
2022-10-29T00:50:53.218Z,14.12
2022-10-29T00:51:53.226Z,14.17
2022-10-29T00:52:53.186Z,14.07
2022-10-29T00:53:53.168Z,14.09
2022-10-29T00:54:53.156Z,14.04
2022-10-29T00:55:53.146Z,14.12
2022-10-29T00:56:53.132Z,14.17
2022-10-29T00:57:53.537Z,14.00
2022-10-29T00:58:53.109Z,14.15
2022-10-29T00:59:53.105Z,14.12
2022-10-29T01:00:53.089Z,14.10
2022-10-29T01:01:53.288Z,14.10
2022-10-29T01:02:53.585Z,14.14
2022-10-29T01:03:53.058Z,14.09
2022-10-29T01:04:53.044Z,14.12
2022-10-29T01:05:53.034Z,14.06
2022-10-29T01:06:53.041Z,14.10
2022-10-29T01:07:53.011Z,14.09
2022-10-29T01:08:53.000Z,14.04
2022-10-29T01:09:52.987Z,13.99
2022-10-29T01:10:53.003Z,14.04
2022-10-29T01:11:52.967Z,14.06
2022-10-29T01:12:53.289Z,13.99
2022-10-29T01:13:52.947Z,13.88
2022-10-29T01:14:52.934Z,13.92
2022-10-29T01:15:52.923Z,13.99
2022-10-29T01:16:52.934Z,13.91
2022-10-29T01:17:53.225Z,13.91
2022-10-29T01:18:52.944Z,13.95
2022-10-29T01:19:52.899Z,13.91
2022-10-29T01:20:52.864Z,13.89
2022-10-29T01:21:52.878Z,13.84
2022-10-29T01:22:52.842Z,13.79
2022-10-29T01:23:52.878Z,13.87
2022-10-29T01:24:52.823Z,13.78
2022-10-29T01:25:52.814Z,13.87
2022-10-29T01:26:52.879Z,13.79
2022-10-29T01:27:53.177Z,13.84
2022-10-29T01:28:52.774Z,13.81
2022-10-29T01:29:52.764Z,13.79
2022-10-29T01:30:52.829Z,13.81
2022-10-29T01:31:52.780Z,13.81
2022-10-29T01:32:53.061Z,13.73
2022-10-29T01:33:52.728Z,13.75
2022-10-29T01:34:52.724Z,13.73
2022-10-29T01:35:52.703Z,13.71
2022-10-29T01:36:52.712Z,13.77
2022-10-29T01:37:52.675Z,13.71
2022-10-29T01:38:52.663Z,13.73
2022-10-29T01:39:52.652Z,13.71
2022-10-29T01:40:52.639Z,13.73
2022-10-29T01:41:52.707Z,13.69
2022-10-29T01:42:52.950Z,13.69
2022-10-29T01:43:52.611Z,13.71
2022-10-29T01:44:52.595Z,13.75
2022-10-29T01:45:52.607Z,13.69
2022-10-29T01:46:52.597Z,13.66
2022-10-29T01:47:52.754Z,13.75
2022-10-29T01:48:52.552Z,13.71
2022-10-29T01:49:52.542Z,13.75
2022-10-29T01:50:52.546Z,13.85
2022-10-29T01:51:52.546Z,13.79
2022-10-29T01:52:52.507Z,13.87
2022-10-29T01:53:52.498Z,13.73
2022-10-29T01:54:52.481Z,13.73
2022-10-29T01:55:52.496Z,13.73
2022-10-29T01:56:52.481Z,13.73
2022-10-29T01:57:52.647Z,13.75
2022-10-29T01:58:52.438Z,13.78
2022-10-29T01:59:56.122Z,13.70
2022-10-29T02:00:52.492Z,13.70
2022-10-29T02:01:52.486Z,13.73
2022-10-29T02:02:52.447Z,13.73
2022-10-29T02:03:52.383Z,13.70
2022-10-29T02:04:52.372Z,13.77
2022-10-29T02:05:52.367Z,13.71
2022-10-29T02:06:52.369Z,13.75
2022-10-29T02:07:52.346Z,13.78
2022-10-29T02:08:52.345Z,13.73
2022-10-29T02:09:52.367Z,13.75
2022-10-29T02:10:52.303Z,13.87
2022-10-29T02:11:52.294Z,13.71
2022-10-29T02:12:52.465Z,13.73
2022-10-29T02:13:52.274Z,13.75
2022-10-29T02:14:52.273Z,13.81
2022-10-29T02:15:52.249Z,13.82
2022-10-29T02:16:52.236Z,13.71
2022-10-29T02:17:52.260Z,13.81
2022-10-29T02:18:52.213Z,13.70
2022-10-29T02:19:52.226Z,13.78
2022-10-29T02:20:52.214Z,13.79
2022-10-29T02:21:52.180Z,13.77
2022-10-29T02:22:52.196Z,13.73
2022-10-29T02:23:52.180Z,13.77
2022-10-29T02:24:52.178Z,13.71
2022-10-29T02:25:52.261Z,13.70
2022-10-29T02:26:52.126Z,13.70
2022-10-29T02:27:52.126Z,13.77
2022-10-29T02:28:52.129Z,13.71
2022-10-29T02:29:52.090Z,13.71
2022-10-29T02:30:52.080Z,13.75
2022-10-29T02:31:52.067Z,13.71
2022-10-29T02:32:52.069Z,13.77
2022-10-29T02:33:52.046Z,13.70
2022-10-29T02:34:52.056Z,13.77
2022-10-29T02:35:52.045Z,13.67
2022-10-29T02:36:52.013Z,13.73
2022-10-29T02:37:52.000Z,13.73
2022-10-29T02:38:52.029Z,13.73
2022-10-29T02:39:51.978Z,13.71
2022-10-29T02:40:51.969Z,13.75
2022-10-29T02:41:51.957Z,13.71
2022-10-29T02:42:51.947Z,13.77
2022-10-29T02:43:51.957Z,13.77
2022-10-29T02:44:51.923Z,13.73
2022-10-29T02:45:51.939Z,13.69
2022-10-29T02:46:51.930Z,13.75
2022-10-29T02:47:51.909Z,13.71
2022-10-29T02:48:51.902Z,13.67
2022-10-29T02:49:51.866Z,13.71
2022-10-29T02:50:51.859Z,13.63
2022-10-29T02:51:51.844Z,13.63
2022-10-29T02:52:51.856Z,13.64
2022-10-29T02:53:51.855Z,13.73
2022-10-29T02:54:51.853Z,13.73
2022-10-29T02:55:51.861Z,13.77
2022-10-29T02:56:51.812Z,13.79
2022-10-29T02:57:51.780Z,13.84
2022-10-29T02:58:51.768Z,13.88
2022-10-29T02:59:51.799Z,13.82
2022-10-29T03:00:51.751Z,13.88
2022-10-29T03:01:51.820Z,13.88
2022-10-29T03:02:51.821Z,13.79
2022-10-29T03:03:51.731Z,13.69
2022-10-29T03:04:51.705Z,13.79
2022-10-29T03:05:51.708Z,13.69
2022-10-29T03:06:51.676Z,13.75
2022-10-29T03:07:51.685Z,13.77
2022-10-29T03:08:51.654Z,13.73
2022-10-29T03:09:51.667Z,13.69
2022-10-29T03:10:51.648Z,13.73
2022-10-29T03:11:51.620Z,13.71
2022-10-29T03:12:51.610Z,13.70
2022-10-29T03:13:51.618Z,13.70
2022-10-29T03:14:51.586Z,13.75
2022-10-29T03:15:51.575Z,13.71
2022-10-29T03:16:51.685Z,13.75
2022-10-29T03:17:51.562Z,13.77
2022-10-29T03:18:51.585Z,13.77
2022-10-29T03:19:51.532Z,13.73
2022-10-29T03:20:51.519Z,13.75
2022-10-29T03:21:51.527Z,13.75
2022-10-29T03:22:51.499Z,13.73
2022-10-29T03:23:51.485Z,13.79
2022-10-29T03:24:51.476Z,13.73
2022-10-29T03:25:55.479Z,13.77
2022-10-29T03:26:51.490Z,13.71
2022-10-29T03:27:51.441Z,13.75
2022-10-29T03:28:51.431Z,13.71
2022-10-29T03:29:51.438Z,13.77
2022-10-29T03:30:51.408Z,13.77
2022-10-29T03:31:51.398Z,13.75
2022-10-29T03:32:51.386Z,13.71
2022-10-29T03:33:51.395Z,13.69
2022-10-29T03:34:54.779Z,13.67
2022-10-29T03:35:52.412Z,13.70
2022-10-29T03:36:51.341Z,13.64
2022-10-29T03:37:51.349Z,13.57
2022-10-29T03:38:51.341Z,13.51
2022-10-29T03:39:51.347Z,13.60
2022-10-29T03:40:51.299Z,13.66
2022-10-29T03:41:51.283Z,13.51
2022-10-29T03:42:51.311Z,13.49
2022-10-29T03:43:51.343Z,13.59
2022-10-29T03:44:51.289Z,13.57
2022-10-29T03:45:51.238Z,13.54
2022-10-29T03:46:51.229Z,13.55
2022-10-29T03:47:51.268Z,13.55
2022-10-29T03:48:51.212Z,13.52
2022-10-29T03:49:51.225Z,13.55
2022-10-29T03:50:51.283Z,13.51
2022-10-29T03:51:51.171Z,13.62
2022-10-29T03:52:51.199Z,13.75
2022-10-29T03:53:51.243Z,13.78
2022-10-29T03:54:51.140Z,13.81
2022-10-29T03:55:51.130Z,13.82
2022-10-29T03:56:51.447Z,13.85
2022-10-29T03:57:51.108Z,13.87
2022-10-29T03:58:51.131Z,13.92
2022-10-29T03:59:52.657Z,13.96
2022-10-29T04:00:51.072Z,13.95
2022-10-29T04:01:51.191Z,13.97
2022-10-29T04:02:51.156Z,13.91
2022-10-29T04:03:51.060Z,13.92
2022-10-29T04:04:51.028Z,13.96
2022-10-29T04:05:51.014Z,13.88
2022-10-29T04:06:51.030Z,13.95
2022-10-29T04:07:50.999Z,13.89
2022-10-29T04:08:50.983Z,13.91
2022-10-29T04:09:50.971Z,13.92
2022-10-29T04:10:50.962Z,13.92
2022-10-29T04:11:50.948Z,13.88
2022-10-29T04:12:50.963Z,13.88
2022-10-29T04:13:50.928Z,13.89
2022-10-29T04:15:50.903Z,13.92
2022-10-29T04:16:50.928Z,13.88
2022-10-29T04:17:50.902Z,13.92
2022-10-29T04:18:50.871Z,14.02
2022-10-29T04:19:50.860Z,14.02
2022-10-29T04:23:01.966Z,14.02
2022-10-29T04:23:54.671Z,14.02
2022-10-29T04:27:07.816Z,14.04
2022-10-29T04:27:08.072Z,14.00
2022-10-29T04:28:51.761Z,13.99
2022-10-29T04:29:50.746Z,14.07
2022-10-29T04:30:50.753Z,14.03
2022-10-29T04:31:50.760Z,14.03
2022-10-29T04:32:50.735Z,14.02
2022-10-29T04:33:50.722Z,14.00
2022-10-29T04:34:50.694Z,14.00
2022-10-29T04:35:50.680Z,13.91
2022-10-29T04:36:50.692Z,13.88
2022-10-29T04:37:50.659Z,13.85
2022-10-29T04:38:50.670Z,13.87
2022-10-29T04:39:50.634Z,13.87
2022-10-29T04:40:50.624Z,13.84
2022-10-29T04:41:50.612Z,13.84
2022-10-29T04:42:50.601Z,13.77
2022-10-29T04:43:50.611Z,13.70
2022-10-29T04:44:50.599Z,13.77
2022-10-29T04:45:50.572Z,13.66
2022-10-29T04:46:50.574Z,13.71
2022-10-29T04:47:50.544Z,13.70
2022-10-29T04:48:50.559Z,13.70
2022-10-29T04:49:50.543Z,13.64
2022-10-29T04:50:50.519Z,13.62
2022-10-29T04:51:50.509Z,13.62
2022-10-29T04:52:50.489Z,13.49
2022-10-29T04:53:50.536Z,13.59
2022-10-29T04:54:50.488Z,13.52
2022-10-29T04:55:50.461Z,13.48
2022-10-29T04:56:50.467Z,13.46
2022-10-29T04:57:50.431Z,13.33
2022-10-29T04:58:50.449Z,13.46
2022-10-29T04:59:50.410Z,13.44
2022-10-29T05:00:50.497Z,13.44
2022-10-29T05:01:50.677Z,13.44
2022-10-29T05:02:50.394Z,13.29
2022-10-29T05:03:52.168Z,13.41
2022-10-29T05:04:50.380Z,13.30
2022-10-29T05:05:50.350Z,13.32
2022-10-29T05:06:50.334Z,13.30
2022-10-29T05:07:50.324Z,13.30
2022-10-29T05:08:50.312Z,13.32
2022-10-29T05:09:50.299Z,13.30
2022-10-29T05:10:50.310Z,13.29
2022-10-29T05:11:50.278Z,13.25
2022-10-29T05:12:50.289Z,13.28
2022-10-29T05:13:50.275Z,13.25
2022-10-29T05:14:50.245Z,13.28
2022-10-29T05:15:53.024Z,13.25
2022-10-29T05:16:50.222Z,13.11
2022-10-29T05:17:50.239Z,13.20
2022-10-29T05:18:50.213Z,13.28
2022-10-29T05:19:50.209Z,13.23
2022-10-29T05:20:50.176Z,13.25
2022-10-29T05:21:50.163Z,13.12
2022-10-29T05:22:50.196Z,13.12
2022-10-29T05:23:50.164Z,13.12
2022-10-29T05:24:50.132Z,13.12
2022-10-29T05:25:50.123Z,13.17
2022-10-29T05:26:50.109Z,13.15
2022-10-29T05:27:50.118Z,13.00
2022-10-29T05:28:50.087Z,13.14
2022-10-29T05:29:50.076Z,13.00
2022-10-29T05:30:50.063Z,13.10
2022-10-29T05:31:50.052Z,13.10
2022-10-29T05:32:50.070Z,13.00
2022-10-29T05:33:52.478Z,12.96
2022-10-29T05:34:51.037Z,12.97
2022-10-29T05:35:50.008Z,13.00
2022-10-29T05:36:50.003Z,12.90
2022-10-29T05:37:50.007Z,12.90
2022-10-29T05:38:49.976Z,12.93
2022-10-29T05:39:49.965Z,12.95
2022-10-29T05:40:49.954Z,12.86
2022-10-29T05:41:49.940Z,12.85
2022-10-29T05:42:49.952Z,12.78
2022-10-29T05:43:49.917Z,12.83
2022-10-29T05:44:49.916Z,12.89
2022-10-29T05:45:49.916Z,12.87
2022-10-29T05:46:49.888Z,12.89
2022-10-29T05:47:49.875Z,12.87
2022-10-29T05:48:49.864Z,12.93
2022-10-29T05:49:49.873Z,12.92
2022-10-29T05:50:49.863Z,12.95
2022-10-29T05:51:49.828Z,12.97
2022-10-29T05:52:49.851Z,12.92
2022-10-29T05:53:49.911Z,13.04
2022-10-29T05:54:49.800Z,12.87
2022-10-29T05:55:49.785Z,12.95
2022-10-29T05:56:49.776Z,12.90
2022-10-29T05:57:49.764Z,12.95
2022-10-29T05:58:49.775Z,12.83
2022-10-29T05:59:49.740Z,12.93
2022-10-29T06:00:49.731Z,12.89
2022-10-29T06:01:49.911Z,12.90
2022-10-29T06:02:49.769Z,12.83
2022-10-29T06:03:49.791Z,12.86
2022-10-29T06:04:49.684Z,12.85
2022-10-29T06:05:49.674Z,12.78
2022-10-29T06:06:49.761Z,12.78
2022-10-29T06:07:49.650Z,12.86
2022-10-29T06:08:49.640Z,12.75
2022-10-29T06:09:49.627Z,12.82
2022-10-29T06:10:49.936Z,12.79
2022-10-29T06:11:49.609Z,12.82
2022-10-29T06:12:49.598Z,12.79
2022-10-29T06:13:49.590Z,12.83
2022-10-29T06:14:49.573Z,12.72
2022-10-29T06:15:49.585Z,12.82
2022-10-29T06:16:49.550Z,12.89
2022-10-29T06:17:49.538Z,12.86
2022-10-29T06:18:49.526Z,12.87
2022-10-29T06:19:49.535Z,12.97
2022-10-29T06:20:49.507Z,12.85
2022-10-29T06:21:49.512Z,12.93
2022-10-29T06:22:49.499Z,12.92
2022-10-29T06:23:49.471Z,12.96
2022-10-29T06:24:49.462Z,12.90
2022-10-29T06:25:49.473Z,12.93
2022-10-29T06:26:49.483Z,12.96
2022-10-29T06:27:49.427Z,13.01
2022-10-29T06:28:49.418Z,12.97
2022-10-29T06:29:49.405Z,13.00
2022-10-29T06:30:49.427Z,12.95
2022-10-29T06:31:49.383Z,13.10
2022-10-29T06:32:49.378Z,13.11
2022-10-29T06:33:49.371Z,13.25
2022-10-29T06:34:49.350Z,13.20
2022-10-29T06:35:49.368Z,13.10
2022-10-29T06:36:49.348Z,13.22
2022-10-29T06:37:49.315Z,13.20
2022-10-29T06:38:49.324Z,13.19
2022-10-29T06:39:49.292Z,13.26
2022-10-29T06:40:49.281Z,13.17
2022-10-29T06:41:49.279Z,13.23
2022-10-29T06:42:49.281Z,13.22
2022-10-29T06:43:49.249Z,13.15
2022-10-29T06:44:49.240Z,13.32
2022-10-29T06:45:49.228Z,13.30
2022-10-29T06:46:49.214Z,13.32
2022-10-29T06:47:49.224Z,13.41
2022-10-29T06:48:49.193Z,13.42
2022-10-29T06:49:49.189Z,13.45
2022-10-29T06:50:49.168Z,13.51
2022-10-29T06:51:49.173Z,13.48
2022-10-29T06:52:49.197Z,13.48
2022-10-29T06:53:49.140Z,13.55
2022-10-29T06:54:49.143Z,13.57
2022-10-29T06:55:49.123Z,13.51
2022-10-29T06:56:49.112Z,13.48
2022-10-29T06:57:49.097Z,13.57
2022-10-29T06:58:49.315Z,13.51
2022-10-29T06:59:49.072Z,13.57
2022-10-29T07:00:49.221Z,13.52
2022-10-29T07:01:49.090Z,13.60
2022-10-29T07:02:49.036Z,13.69
2022-10-29T07:03:49.047Z,13.59
2022-10-29T07:04:49.013Z,13.57
2022-10-29T07:05:49.010Z,13.51
2022-10-29T07:06:49.012Z,13.54
2022-10-29T07:07:48.982Z,13.63
2022-10-29T07:08:48.970Z,13.52
2022-10-29T07:09:48.958Z,13.55
2022-10-29T07:10:48.983Z,13.51
2022-10-29T07:11:48.957Z,13.51
2022-10-29T07:12:48.923Z,13.60
2022-10-29T07:13:48.936Z,13.62
2022-10-29T07:14:48.903Z,13.63
2022-10-29T07:15:48.894Z,13.60
2022-10-29T07:16:48.880Z,13.59
2022-10-29T07:17:48.868Z,13.60
2022-10-29T07:18:48.906Z,13.62
2022-10-29T07:19:48.847Z,13.59
2022-10-29T07:20:48.836Z,13.59
2022-10-29T07:21:48.855Z,13.60
2022-10-29T07:22:48.810Z,13.57
2022-10-29T07:23:48.823Z,13.55
2022-10-29T07:24:48.789Z,13.51
2022-10-29T07:25:48.778Z,13.51
2022-10-29T07:26:48.783Z,13.62
2022-10-29T07:27:48.866Z,13.57
2022-10-29T07:28:48.744Z,13.51
2022-10-29T07:29:48.739Z,13.55
2022-10-29T07:30:48.721Z,13.51
2022-10-29T07:31:48.717Z,13.60
2022-10-29T07:32:48.699Z,13.63
2022-10-29T07:33:48.711Z,13.64
2022-10-29T07:34:48.677Z,13.64
2022-10-29T07:35:48.667Z,13.78
2022-10-29T07:36:48.673Z,13.78
2022-10-29T07:37:48.694Z,13.91
2022-10-29T07:38:48.637Z,13.96
2022-10-29T07:39:48.622Z,13.99
2022-10-29T07:40:48.629Z,13.97
2022-10-29T07:41:48.620Z,14.12
2022-10-29T07:42:48.703Z,14.14
2022-10-29T07:43:48.577Z,14.17
2022-10-29T07:44:48.568Z,14.18
2022-10-29T07:45:48.575Z,14.20
2022-10-29T07:46:48.541Z,14.17
2022-10-29T07:47:48.646Z,14.24
2022-10-29T07:48:48.542Z,14.27
2022-10-29T07:49:48.509Z,14.28
2022-10-29T07:50:48.501Z,14.20
2022-10-29T07:51:48.485Z,14.32
2022-10-29T07:52:48.474Z,14.33
2022-10-29T07:53:48.483Z,14.32
2022-10-29T07:54:48.454Z,14.28
2022-10-29T07:55:48.442Z,14.36
2022-10-29T07:56:48.429Z,14.36
2022-10-29T07:57:48.453Z,14.52
2022-10-29T07:58:48.443Z,14.54
2022-10-29T07:59:48.399Z,14.50
2022-10-29T08:00:48.432Z,14.69
2022-10-29T08:01:48.506Z,14.70
2022-10-29T08:02:48.408Z,14.73
2022-10-29T08:03:48.378Z,14.96
2022-10-29T08:04:48.340Z,15.01
2022-10-29T08:05:53.721Z,15.06
2022-10-29T08:06:49.316Z,15.14
2022-10-29T08:07:48.334Z,15.19
2022-10-29T08:08:48.298Z,15.31
2022-10-29T08:09:48.315Z,15.29
2022-10-29T08:10:48.309Z,15.34
2022-10-29T08:11:48.322Z,15.28
2022-10-29T08:12:48.254Z,15.35
2022-10-29T08:13:48.244Z,15.36
2022-10-29T08:14:48.251Z,15.46
2022-10-29T08:15:48.226Z,15.38
2022-10-29T08:16:48.271Z,15.49
2022-10-29T08:17:48.199Z,15.47
2022-10-29T08:18:48.186Z,15.60
2022-10-29T08:19:48.196Z,15.54
2022-10-29T08:20:48.163Z,15.60
2022-10-29T08:21:48.158Z,15.68
2022-10-29T08:22:48.142Z,15.78
2022-10-29T08:23:48.157Z,15.80
2022-10-29T08:24:48.120Z,15.83
2022-10-29T08:25:48.109Z,15.90
2022-10-29T08:26:48.096Z,15.97
2022-10-29T08:27:48.120Z,15.94
2022-10-29T08:28:48.100Z,16.00
2022-10-29T08:29:48.066Z,15.96
2022-10-29T08:30:48.069Z,16.00
2022-10-29T08:31:48.042Z,15.94
2022-10-29T08:32:48.033Z,15.93
2022-10-29T08:33:48.042Z,15.94
2022-10-29T08:34:48.008Z,15.90
2022-10-29T08:35:48.023Z,15.83
2022-10-29T08:36:47.988Z,15.93
2022-10-29T08:37:48.087Z,16.01
2022-10-29T08:38:47.970Z,16.02
2022-10-29T08:39:47.959Z,16.04
2022-10-29T08:40:47.964Z,16.05
2022-10-29T08:41:47.935Z,16.05
2022-10-29T08:42:47.960Z,16.07
2022-10-29T08:43:47.958Z,16.09
2022-10-29T08:44:47.923Z,16.07
2022-10-29T08:45:47.947Z,16.21
2022-10-29T08:46:47.895Z,16.17
2022-10-29T08:47:47.867Z,16.21
2022-10-29T08:48:47.855Z,16.15
2022-10-29T08:49:47.844Z,16.23
2022-10-29T08:50:47.833Z,16.20
2022-10-29T08:51:47.851Z,16.34
2022-10-29T08:52:53.287Z,16.34
2022-10-29T08:53:58.682Z,16.34
2022-10-29T08:54:48.786Z,16.43
2022-10-29T08:55:47.781Z,16.46
2022-10-29T08:59:09.178Z,16.58
2022-10-29T09:01:09.208Z,16.71
2022-10-29T09:02:09.218Z,16.81
2022-10-29T09:03:09.121Z,16.93
2022-10-29T09:04:09.109Z,16.94
2022-10-29T09:05:09.113Z,17.06
2022-10-29T09:06:09.087Z,17.07
2022-10-29T09:07:09.091Z,17.21
2022-10-29T09:08:09.065Z,17.21
2022-10-29T09:09:09.059Z,17.37
2022-10-29T09:10:09.062Z,17.46
2022-10-29T09:11:09.028Z,17.46
2022-10-29T09:12:09.018Z,17.54
2022-10-29T09:13:09.025Z,17.56
2022-10-29T09:14:08.997Z,17.63
2022-10-29T09:15:09.001Z,17.68
2022-10-29T09:16:08.989Z,17.63
2022-10-29T09:17:11.511Z,17.70
2022-10-29T09:18:09.975Z,17.74
2022-10-29T09:19:08.944Z,17.78
2022-10-29T09:20:08.929Z,17.81
2022-10-29T09:21:08.939Z,17.89
2022-10-29T09:22:08.907Z,17.92
2022-10-29T09:23:08.898Z,17.89
2022-10-29T09:24:08.942Z,17.96
2022-10-29T09:25:08.892Z,17.95
2022-10-29T09:26:08.892Z,17.90
2022-10-29T09:27:10.734Z,17.90
2022-10-29T09:28:08.839Z,17.90
2022-10-29T09:29:08.835Z,17.95
2022-10-29T09:30:08.817Z,17.95
2022-10-29T09:31:08.825Z,17.90
2022-10-29T09:32:08.795Z,17.96
2022-10-29T09:33:08.801Z,17.95
2022-10-29T09:34:08.795Z,17.96
2022-10-29T09:35:08.768Z,17.96
2022-10-29T09:36:08.763Z,18.11
2022-10-29T09:37:08.768Z,18.11
2022-10-29T09:38:09.038Z,18.07
2022-10-29T09:39:08.725Z,18.08
2022-10-29T09:40:08.713Z,18.11
2022-10-29T09:41:08.700Z,18.18
2022-10-29T09:42:08.690Z,18.20
2022-10-29T09:43:08.680Z,18.17
2022-10-29T09:44:08.819Z,18.18
2022-10-29T09:45:08.655Z,18.21
2022-10-29T09:46:08.646Z,18.21
2022-10-29T09:47:09.887Z,18.15
2022-10-29T09:48:08.622Z,18.27
2022-10-29T09:49:08.653Z,18.25
2022-10-29T09:50:09.090Z,18.32
2022-10-29T09:51:08.590Z,18.44
2022-10-29T09:52:08.581Z,18.37
2022-10-29T09:53:08.879Z,18.39
2022-10-29T09:54:08.557Z,18.39
2022-10-29T09:55:08.559Z,18.45
2022-10-29T09:56:08.530Z,18.51
2022-10-29T09:57:08.518Z,18.57
2022-10-29T09:58:08.524Z,18.60
2022-10-29T09:59:08.515Z,18.82
2022-10-29T10:00:08.485Z,18.80
2022-10-29T10:01:08.474Z,18.81
2022-10-29T10:02:08.754Z,18.92
2022-10-29T10:03:08.571Z,19.02
2022-10-29T10:04:08.443Z,19.11
2022-10-29T10:05:08.429Z,19.22
2022-10-29T10:06:08.450Z,19.28
2022-10-29T10:07:08.406Z,19.43
2022-10-29T10:08:08.415Z,19.50
2022-10-29T10:09:08.406Z,19.55
2022-10-29T10:10:08.373Z,19.50
2022-10-29T10:11:08.360Z,19.59
2022-10-29T10:12:08.354Z,19.68
2022-10-29T10:13:11.718Z,19.56
2022-10-29T10:14:09.344Z,19.68
2022-10-29T10:15:08.316Z,19.65
2022-10-29T10:16:08.313Z,19.88
2022-10-29T10:17:08.292Z,19.99
2022-10-29T10:18:08.283Z,20.03
2022-10-29T10:19:08.291Z,20.16
2022-10-29T10:20:08.259Z,20.14
2022-10-29T10:21:08.249Z,20.24
2022-10-29T10:22:10.223Z,20.36
2022-10-29T10:23:08.248Z,20.47
2022-10-29T10:24:08.234Z,20.70
2022-10-29T10:25:08.269Z,20.73
2022-10-29T10:26:08.191Z,20.97
2022-10-29T10:27:08.181Z,20.95
2022-10-29T10:28:08.169Z,20.98
2022-10-29T10:29:08.180Z,20.85
2022-10-29T10:30:08.146Z,20.70
2022-10-29T10:31:08.142Z,20.62
2022-10-29T10:32:08.123Z,20.50
2022-10-29T10:33:08.144Z,20.38
2022-10-29T10:34:08.102Z,20.28
2022-10-29T10:35:08.095Z,20.32
2022-10-29T10:36:08.079Z,20.41
2022-10-29T10:37:08.067Z,20.31
2022-10-29T10:38:08.095Z,20.23
2022-10-29T10:39:08.045Z,20.26
2022-10-29T10:40:08.033Z,20.14
2022-10-29T10:41:08.024Z,20.16
2022-10-29T10:42:08.030Z,20.10
2022-10-29T10:43:08.988Z,20.14
2022-10-29T10:44:07.990Z,20.11
2022-10-29T10:45:07.994Z,20.14
2022-10-29T10:46:07.965Z,20.13
2022-10-29T10:47:07.958Z,20.02
2022-10-29T10:48:08.079Z,20.13
2022-10-29T10:49:07.932Z,19.95
2022-10-29T10:50:07.962Z,19.96
2022-10-29T10:51:07.914Z,19.96
2022-10-29T10:52:07.897Z,19.95
2022-10-29T10:53:07.908Z,19.95
2022-10-29T10:54:07.980Z,19.96
2022-10-29T10:55:07.865Z,20.01
2022-10-29T10:56:07.852Z,20.03
2022-10-29T10:57:07.846Z,20.01
2022-10-29T10:58:07.831Z,20.11
2022-10-29T10:59:07.844Z,20.20
2022-10-29T11:00:07.811Z,20.18
2022-10-29T11:01:07.922Z,20.26
2022-10-29T11:02:07.797Z,20.28
2022-10-29T11:03:07.802Z,20.41
2022-10-29T11:04:07.784Z,20.38
2022-10-29T11:05:08.149Z,20.41
2022-10-29T11:06:07.742Z,20.51
2022-10-29T11:07:07.731Z,20.51
2022-10-29T11:08:07.720Z,20.57
2022-10-29T11:09:07.730Z,20.62
2022-10-29T11:10:07.712Z,20.79
2022-10-29T11:11:07.686Z,20.85
2022-10-29T11:12:07.676Z,20.82
2022-10-29T11:13:07.687Z,20.85
2022-10-29T11:14:07.651Z,20.76
2022-10-29T11:15:07.662Z,20.69
2022-10-29T11:16:07.653Z,20.74
2022-10-29T11:17:07.622Z,20.84
2022-10-29T11:18:07.665Z,20.87
2022-10-29T11:19:07.596Z,20.88
2022-10-29T11:20:07.583Z,20.80
2022-10-29T11:21:07.600Z,20.85
2022-10-29T11:22:07.581Z,20.87
2022-10-29T11:23:07.551Z,20.91
2022-10-29T11:24:07.594Z,20.89
2022-10-29T11:25:07.529Z,20.76
2022-10-29T11:26:07.532Z,20.74
2022-10-29T11:27:07.529Z,20.73
2022-10-29T11:28:07.493Z,20.74
2022-10-29T11:29:07.485Z,20.72
2022-10-29T11:30:07.478Z,20.58
2022-10-29T11:31:07.540Z,20.62
2022-10-29T11:32:07.451Z,20.66
2022-10-29T11:33:07.533Z,20.69
2022-10-29T11:34:07.432Z,20.69
2022-10-29T11:35:07.417Z,20.54
2022-10-29T11:36:07.403Z,20.69
2022-10-29T11:37:07.395Z,20.55
2022-10-29T11:38:07.423Z,20.58
2022-10-29T11:39:07.375Z,20.59
2022-10-29T11:40:07.382Z,20.59
2022-10-29T11:41:07.348Z,20.54
2022-10-29T11:42:07.353Z,20.59
2022-10-29T11:43:09.276Z,20.64
2022-10-29T11:44:07.333Z,20.59
2022-10-29T11:45:07.313Z,20.77
2022-10-29T11:46:07.291Z,20.72
2022-10-29T11:47:07.303Z,20.72
2022-10-29T11:48:07.335Z,20.73
2022-10-29T11:49:07.260Z,20.79
2022-10-29T11:50:07.247Z,20.85
2022-10-29T11:51:07.240Z,20.88
2022-10-29T11:52:07.244Z,20.80
2022-10-29T11:53:07.235Z,20.97
2022-10-29T11:54:07.201Z,21.01
2022-10-29T11:55:07.191Z,21.06
2022-10-29T11:56:07.179Z,20.97
2022-10-29T11:57:07.190Z,20.97
2022-10-29T11:58:07.172Z,21.07
2022-10-29T11:59:07.147Z,21.16
2022-10-29T12:00:07.135Z,21.16
2022-10-29T12:01:07.146Z,21.21
2022-10-29T12:02:07.120Z,21.19
2022-10-29T12:03:07.113Z,21.29
2022-10-29T12:04:07.168Z,21.25
2022-10-29T12:05:07.103Z,21.31
2022-10-29T12:06:07.068Z,21.37
2022-10-29T12:07:07.060Z,21.44
2022-10-29T12:08:07.067Z,21.34
2022-10-29T12:09:07.061Z,21.34
2022-10-29T12:10:07.019Z,21.43
2022-10-29T12:11:07.067Z,21.44
2022-10-29T12:12:06.998Z,21.35
2022-10-29T12:13:06.990Z,21.40
2022-10-29T12:14:06.993Z,21.29
2022-10-29T12:15:06.964Z,21.42
2022-10-29T12:16:06.971Z,21.28
2022-10-29T12:17:06.948Z,21.24
2022-10-29T12:18:07.003Z,21.27
2022-10-29T12:19:06.920Z,21.27
2022-10-29T12:21:06.918Z,21.27
2022-10-29T12:22:06.885Z,21.22
2022-10-29T12:23:11.955Z,21.25
2022-10-29T12:24:07.881Z,21.28
2022-10-29T12:25:06.880Z,21.32
2022-10-29T12:26:06.838Z,21.24
2022-10-29T12:27:06.831Z,21.31
2022-10-29T12:28:06.818Z,21.19
2022-10-29T12:29:06.807Z,21.24
2022-10-29T12:30:06.812Z,21.28
2022-10-29T12:31:06.804Z,21.24
2022-10-29T12:32:06.780Z,21.28
2022-10-29T12:33:06.762Z,21.24
2022-10-29T12:34:06.758Z,21.27
2022-10-29T12:35:06.760Z,21.25
2022-10-29T12:36:06.729Z,21.16
2022-10-29T12:37:06.716Z,21.14
2022-10-29T12:38:06.703Z,21.13
2022-10-29T12:39:06.699Z,21.07
2022-10-29T12:40:06.701Z,21.07
2022-10-29T12:41:06.671Z,21.10
2022-10-29T12:42:06.657Z,21.13
2022-10-29T12:43:06.649Z,21.12
2022-10-29T12:44:06.656Z,21.10
2022-10-29T12:45:06.630Z,21.10
2022-10-29T12:46:19.477Z,21.21
2022-10-29T12:47:07.625Z,21.10
2022-10-29T12:48:06.590Z,21.21
2022-10-29T12:49:06.600Z,21.19
2022-10-29T12:50:06.566Z,21.24
2022-10-29T12:51:06.560Z,21.22
2022-10-29T12:52:06.559Z,21.22
2022-10-29T12:53:06.555Z,21.13
2022-10-29T12:54:06.521Z,21.12
2022-10-29T12:55:06.522Z,21.19
2022-10-29T12:56:06.500Z,21.13
2022-10-29T12:57:06.512Z,21.19
2022-10-29T12:58:06.497Z,21.14
2022-10-29T12:59:06.514Z,21.16
2022-10-29T13:00:06.460Z,21.21
2022-10-29T13:01:06.473Z,21.12
2022-10-29T13:02:11.677Z,21.10